createdAt,value
2019-03-05T00:02:06.935Z,63.80
2019-03-05T00:04:40.089Z,64.02
2019-03-05T00:07:11.592Z,64.16
2019-03-05T00:09:42.756Z,63.92
2019-03-05T00:12:15.549Z,64.00
2019-03-05T00:14:47.155Z,64.10
2019-03-05T00:17:19.503Z,64.21
2019-03-05T00:19:51.872Z,64.37
2019-03-05T00:22:23.238Z,64.30
2019-03-05T00:25:02.161Z,63.90
2019-03-05T00:27:35.843Z,64.10
2019-03-05T00:30:32.770Z,63.80
2019-03-05T00:33:08.436Z,64.09
2019-03-05T00:35:59.054Z,63.91
2019-03-05T00:38:49.895Z,62.86
2019-03-05T00:41:33.154Z,63.56
2019-03-05T00:44:17.318Z,63.39
2019-03-05T00:47:03.217Z,63.12
2019-03-05T00:49:46.837Z,63.24
2019-03-05T00:52:21.803Z,63.24
2019-03-05T00:55:03.753Z,63.22
2019-03-05T00:57:43.718Z,62.94
2019-03-05T01:00:24.491Z,62.66
2019-03-05T01:03:00.092Z,63.09
2019-03-05T01:05:45.828Z,63.26
2019-03-05T01:08:21.679Z,63.29
2019-03-05T01:10:54.825Z,63.17
2019-03-05T01:13:27.611Z,63.05
2019-03-05T01:16:00.485Z,62.98
2019-03-05T01:18:31.761Z,63.35
2019-03-05T01:21:04.869Z,62.89
2019-03-05T01:23:40.371Z,62.29
2019-03-05T01:26:11.745Z,62.45
2019-03-05T01:28:42.871Z,62.56
2019-03-05T01:31:21.982Z,62.33
2019-03-05T01:33:57.724Z,62.48
2019-03-05T01:36:30.482Z,62.42
2019-03-05T01:39:03.254Z,62.11
2019-03-05T01:41:36.160Z,62.24
2019-03-05T01:44:08.146Z,61.80
2019-03-05T01:46:39.366Z,62.46
2019-03-05T01:49:10.509Z,62.37
2019-03-05T01:51:41.767Z,62.15
2019-03-05T01:54:12.926Z,62.27
2019-03-05T01:56:44.265Z,61.92
2019-03-05T01:59:15.510Z,62.01
2019-03-05T02:01:46.769Z,61.95
2019-03-05T02:04:17.988Z,61.70
2019-03-05T02:06:49.165Z,62.48
2019-03-05T02:09:20.300Z,62.24
2019-03-05T02:11:51.473Z,62.11
2019-03-05T02:14:22.575Z,61.88
2019-03-05T02:16:53.791Z,61.91
2019-03-05T02:19:37.137Z,61.45
2019-03-05T02:22:11.748Z,61.47
2019-03-05T02:25:04.035Z,60.91
2019-03-05T02:27:41.188Z,61.01
2019-03-05T02:30:36.014Z,60.97
2019-03-05T02:33:43.612Z,61.04
2019-03-05T02:36:18.018Z,60.94
2019-03-05T02:39:15.712Z,61.51
2019-03-05T02:41:52.529Z,61.04
2019-03-05T02:44:26.948Z,61.36
2019-03-05T02:47:09.886Z,61.29
2019-03-05T02:49:51.060Z,61.31
2019-03-05T02:52:32.108Z,61.43
2019-03-05T02:55:15.011Z,61.08
2019-03-05T02:57:45.167Z,61.21
2019-03-05T03:00:17.947Z,60.62
2019-03-05T03:02:53.360Z,60.71
2019-03-05T03:05:27.151Z,60.98
2019-03-05T03:07:59.923Z,61.31
2019-03-05T03:10:31.489Z,61.60
2019-03-05T03:13:02.848Z,61.15
2019-03-05T03:15:34.001Z,61.31
2019-03-05T03:18:05.229Z,61.46
2019-03-05T03:20:36.417Z,61.54
2019-03-05T03:23:09.401Z,61.56
2019-03-05T03:25:42.698Z,61.38
2019-03-05T03:28:15.145Z,61.47
2019-03-05T03:30:46.473Z,61.36
2019-03-05T03:33:17.812Z,60.93
2019-03-05T03:35:49.042Z,61.11
2019-03-05T03:38:20.226Z,60.60
2019-03-05T03:40:51.497Z,61.44
2019-03-05T03:43:22.681Z,61.55
2019-03-05T03:45:53.880Z,61.56
2019-03-05T03:48:25.075Z,61.53
2019-03-05T03:50:56.395Z,61.35
2019-03-05T03:53:29.726Z,61.71
2019-03-05T03:56:01.059Z,61.13
2019-03-05T03:58:32.302Z,61.30
2019-03-05T04:01:46.841Z,61.24
2019-03-05T04:04:18.021Z,61.29
2019-03-05T04:06:49.243Z,61.37
2019-03-05T04:09:20.903Z,61.28
2019-03-05T04:11:52.877Z,61.71
2019-03-05T04:14:24.145Z,61.49
2019-03-05T04:16:55.323Z,61.56
2019-03-05T04:19:28.114Z,61.50
2019-03-05T04:21:59.362Z,61.81
2019-03-05T04:24:30.579Z,61.67
2019-03-05T04:27:01.788Z,61.80
2019-03-05T04:29:33.260Z,62.17
2019-03-05T04:32:05.833Z,61.94
2019-03-05T04:34:36.962Z,61.84
2019-03-05T04:37:09.718Z,62.08
2019-03-05T04:39:40.969Z,61.61
2019-03-05T04:42:12.168Z,61.80
2019-03-05T04:44:45.006Z,62.03
2019-03-05T04:47:17.198Z,62.54
2019-03-05T04:49:49.992Z,62.40
2019-03-05T04:52:22.363Z,62.51
2019-03-05T04:54:53.498Z,62.42
2019-03-05T04:57:24.789Z,61.96
2019-03-05T04:59:58.229Z,62.34
2019-03-05T05:02:30.701Z,62.19
2019-03-05T05:05:01.872Z,61.83
2019-03-05T05:07:34.074Z,62.38
2019-03-05T05:10:07.136Z,62.13
2019-03-05T05:12:38.322Z,61.89
2019-03-05T05:15:21.322Z,62.21
2019-03-05T05:17:52.539Z,62.47
2019-03-05T05:20:23.735Z,61.94
2019-03-05T05:22:54.920Z,62.18
2019-03-05T05:25:27.124Z,62.64
2019-03-05T05:27:57.784Z,62.55
2019-03-05T05:30:34.376Z,62.29
2019-03-05T05:33:07.317Z,62.24
2019-03-05T05:35:38.508Z,62.17
2019-03-05T05:38:11.220Z,62.29
2019-03-05T05:40:46.148Z,62.08
2019-03-05T05:43:25.718Z,61.76
2019-03-05T05:45:56.887Z,61.93
2019-03-05T05:48:28.086Z,61.89
2019-03-05T05:50:59.292Z,61.69
2019-03-05T05:53:31.118Z,61.49
2019-03-05T05:56:02.364Z,60.62
2019-03-05T05:58:33.761Z,61.15
2019-03-05T06:01:06.869Z,61.06
2019-03-05T06:03:38.134Z,60.58
2019-03-05T06:06:09.273Z,60.08
2019-03-05T06:08:41.486Z,59.42
2019-03-05T06:11:12.639Z,59.97
2019-03-05T06:13:45.553Z,59.96
2019-03-05T06:16:16.634Z,59.92
2019-03-05T06:18:47.843Z,59.85
2019-03-05T06:21:19.065Z,59.44
2019-03-05T06:23:50.351Z,59.05
2019-03-05T06:26:21.557Z,58.98
2019-03-05T06:28:53.433Z,58.64
2019-03-05T06:31:24.690Z,58.66
2019-03-05T06:33:55.888Z,58.41
2019-03-05T06:36:27.119Z,58.77
2019-03-05T06:38:58.376Z,58.69
2019-03-05T06:41:29.623Z,59.04
2019-03-05T06:44:02.301Z,59.03
2019-03-05T06:46:34.746Z,58.99
2019-03-05T06:49:05.991Z,58.86
2019-03-05T06:51:37.089Z,58.71
2019-03-05T06:54:08.316Z,58.52
2019-03-05T06:56:39.606Z,58.17
2019-03-05T06:59:10.953Z,58.26
2019-03-05T07:01:42.296Z,58.30
2019-03-05T07:04:16.324Z,58.01
2019-03-05T07:06:49.583Z,57.24
2019-03-05T07:09:32.707Z,57.00
2019-03-05T07:12:14.482Z,56.72
2019-03-05T07:15:20.463Z,56.49
2019-03-05T07:17:54.845Z,55.42
2019-03-05T07:20:44.356Z,54.12
2019-03-05T07:23:30.341Z,53.40
2019-03-05T07:26:01.702Z,53.52
2019-03-05T07:28:34.887Z,52.58
2019-03-05T07:31:06.701Z,53.37
2019-03-05T07:33:39.951Z,53.21
2019-03-05T07:36:11.196Z,53.44
2019-03-05T07:38:42.401Z,52.46
2019-03-05T07:41:13.642Z,52.47
2019-03-05T07:43:44.811Z,53.05
2019-03-05T07:46:17.929Z,53.00
2019-03-05T07:48:49.112Z,52.93
2019-03-05T07:51:20.324Z,53.38
2019-03-05T07:54:59.251Z,52.87
2019-03-05T07:57:30.589Z,52.74
2019-03-05T08:00:01.808Z,52.54
2019-03-05T08:02:37.213Z,52.68
2019-03-05T08:05:11.538Z,52.37
2019-03-05T08:07:44.447Z,52.42
2019-03-05T08:10:25.301Z,52.15
2019-03-05T08:13:12.049Z,54.30
2019-03-05T08:16:13.493Z,54.93
2019-03-05T08:18:44.855Z,54.45
2019-03-05T08:21:16.633Z,54.21
2019-03-05T08:23:48.547Z,54.82
2019-03-05T08:26:22.348Z,55.61
2019-03-05T08:28:55.258Z,56.48
2019-03-05T08:31:26.438Z,56.53
2019-03-05T08:33:57.730Z,56.09
2019-03-05T08:36:29.523Z,56.44
2019-03-05T08:39:03.137Z,56.36
2019-03-05T08:41:35.999Z,56.31
2019-03-05T08:44:07.441Z,56.55
2019-03-05T08:46:39.713Z,55.89
2019-03-05T08:49:11.472Z,56.00
2019-03-05T08:51:44.194Z,56.15
2019-03-05T08:54:16.364Z,56.67
2019-03-05T08:56:48.276Z,57.59
2019-03-05T08:59:19.680Z,58.85
2019-03-05T09:01:51.896Z,59.02
2019-03-05T09:04:24.151Z,59.96
2019-03-05T09:06:55.410Z,60.14
2019-03-05T09:09:28.883Z,60.64
2019-03-05T09:12:00.882Z,60.97
2019-03-05T09:14:34.320Z,60.85
2019-03-05T09:17:06.500Z,60.64
2019-03-05T09:19:37.588Z,60.64
2019-03-05T09:22:09.801Z,61.10
2019-03-05T09:24:41.009Z,62.55
2019-03-05T09:27:12.156Z,62.71
2019-03-05T09:29:44.615Z,63.74
2019-03-05T09:32:16.049Z,64.00
2019-03-05T09:34:49.122Z,63.82
2019-03-05T09:37:20.414Z,65.41
2019-03-05T09:39:51.882Z,66.72
2019-03-05T09:42:23.411Z,67.53
2019-03-05T09:44:54.693Z,68.60
2019-03-05T09:47:25.947Z,69.81
2019-03-05T09:49:57.325Z,70.03
2019-03-05T09:52:28.509Z,70.82
2019-03-05T09:54:59.809Z,70.73
2019-03-05T09:57:31.020Z,71.39
2019-03-05T10:00:02.230Z,71.86
2019-03-05T10:02:34.191Z,72.51
2019-03-05T10:05:08.567Z,73.07
2019-03-05T10:07:39.809Z,73.44
2019-03-05T10:10:19.286Z,75.35
2019-03-05T10:12:50.451Z,76.03
2019-03-05T10:15:22.845Z,76.49
2019-03-05T10:17:55.082Z,76.14
2019-03-05T10:20:33.055Z,76.20
2019-03-05T10:23:05.913Z,75.88
2019-03-05T10:25:37.084Z,75.79
2019-03-05T10:28:08.569Z,77.27
2019-03-05T10:30:45.566Z,78.84
2019-03-05T10:33:18.242Z,79.01
2019-03-05T10:35:49.525Z,79.57
2019-03-05T10:38:20.923Z,79.52
2019-03-05T10:40:56.730Z,79.23
2019-03-05T10:43:28.718Z,79.52
2019-03-05T10:46:07.133Z,79.70
2019-03-05T10:48:39.347Z,80.20
2019-03-05T10:51:12.515Z,79.50
2019-03-05T10:53:46.521Z,79.41
2019-03-05T10:56:17.909Z,80.30
2019-03-05T10:58:49.460Z,80.26
2019-03-05T11:01:21.807Z,80.76
2019-03-05T11:03:52.960Z,80.81
2019-03-05T11:06:24.129Z,81.08
2019-03-05T11:08:56.590Z,80.83
2019-03-05T11:11:28.047Z,80.73
2019-03-05T11:13:59.636Z,80.52
2019-03-05T11:16:31.350Z,80.46
2019-03-05T11:19:02.486Z,80.84
2019-03-05T11:21:33.592Z,81.40
2019-03-05T11:24:04.816Z,81.49
2019-03-05T11:26:36.165Z,81.64
2019-03-05T11:29:07.362Z,81.67
2019-03-05T11:31:38.622Z,81.52
2019-03-05T11:34:09.989Z,81.32
2019-03-05T11:36:41.208Z,81.19
2019-03-05T11:39:13.087Z,81.12
2019-03-05T11:41:44.384Z,80.67
2019-03-05T11:44:16.713Z,80.30
2019-03-05T11:46:47.902Z,79.71
2019-03-05T11:49:19.073Z,79.19
2019-03-05T11:51:50.176Z,79.60
2019-03-05T11:54:21.332Z,79.71
2019-03-05T11:56:52.592Z,79.22
2019-03-05T11:59:23.691Z,79.45
2019-03-05T12:01:54.120Z,79.26
2019-03-05T12:04:25.199Z,79.11
2019-03-05T12:06:56.343Z,79.26
2019-03-05T12:09:27.753Z,78.91
2019-03-05T12:12:00.540Z,78.37
2019-03-05T12:14:33.165Z,77.57
2019-03-05T12:17:04.343Z,76.87
2019-03-05T12:19:35.401Z,76.91
2019-03-05T12:22:05.841Z,76.34
2019-03-05T12:24:36.929Z,76.09
2019-03-05T12:27:10.218Z,75.88
2019-03-05T12:29:41.489Z,75.25
2019-03-05T12:32:15.179Z,75.47
2019-03-05T12:34:45.639Z,74.87
2019-03-05T12:37:16.791Z,74.81
2019-03-05T12:39:47.313Z,75.18
2019-03-05T12:42:19.978Z,75.65
2019-03-05T12:44:53.085Z,76.08
2019-03-05T12:47:29.817Z,76.06
2019-03-05T12:50:00.978Z,75.87
2019-03-05T12:52:34.386Z,75.87
2019-03-05T12:55:08.357Z,75.79
2019-03-05T12:57:39.515Z,75.74
2019-03-05T13:00:24.484Z,75.39
2019-03-05T13:02:55.860Z,73.66
2019-03-05T13:05:27.109Z,73.25
2019-03-05T13:07:58.708Z,73.26
2019-03-05T13:10:36.042Z,73.19
2019-03-05T13:13:04.842Z,72.35
2019-03-05T13:15:42.937Z,72.29
2019-03-05T13:18:14.508Z,71.96
2019-03-05T13:20:45.919Z,71.63
2019-03-05T13:23:17.071Z,71.64
2019-03-05T13:25:48.278Z,71.09
2019-03-05T13:28:20.954Z,70.62
2019-03-05T13:30:55.296Z,71.10
2019-03-05T13:33:28.855Z,71.69
2019-03-05T13:36:00.027Z,71.45
2019-03-05T13:38:31.325Z,71.96
2019-03-05T13:41:03.915Z,72.69
2019-03-05T13:46:07.774Z,73.63
2019-03-05T13:48:57.795Z,74.14
2019-03-05T13:51:59.595Z,73.22
2019-03-05T13:55:40.342Z,72.81
2019-03-05T13:58:14.878Z,73.27
2019-03-05T14:00:46.005Z,73.98
2019-03-05T14:03:21.598Z,74.49
2019-03-05T14:05:56.054Z,74.45
2019-03-05T14:08:33.269Z,74.43
2019-03-05T14:11:04.406Z,74.37
2019-03-05T14:13:35.663Z,74.48
2019-03-05T14:16:08.173Z,74.16
2019-03-05T14:18:42.192Z,74.14
2019-03-05T14:21:13.220Z,74.25
2019-03-05T14:23:43.677Z,74.26
2019-03-05T14:26:14.976Z,73.82
2019-03-05T14:28:46.148Z,73.07
2019-03-05T14:31:17.408Z,72.37
2019-03-05T14:33:50.491Z,70.74
2019-03-05T14:36:21.750Z,68.52
2019-03-05T14:38:53.990Z,66.98
2019-03-05T14:41:25.266Z,65.83
2019-03-05T14:43:56.493Z,64.91
2019-03-05T14:46:27.557Z,64.99
2019-03-05T14:48:58.723Z,64.97
2019-03-05T14:51:29.841Z,64.88
2019-03-05T14:54:01.082Z,65.25
2019-03-05T14:56:32.965Z,65.27
2019-03-05T14:59:05.131Z,64.46
2019-03-05T15:01:36.349Z,64.25
2019-03-05T15:04:07.957Z,63.36
2019-03-05T15:06:40.799Z,63.19
2019-03-05T15:09:13.714Z,61.89
2019-03-05T15:11:45.210Z,61.85
2019-03-05T15:14:16.533Z,62.80
2019-03-05T15:16:49.350Z,63.18
2019-03-05T15:19:21.799Z,62.50
2019-03-05T15:21:54.556Z,62.95
2019-03-05T15:24:27.252Z,62.34
2019-03-05T15:26:58.423Z,63.00
2019-03-05T15:29:29.594Z,63.39
2019-03-05T15:33:08.450Z,63.62
2019-03-05T15:35:39.559Z,63.01
2019-03-05T15:38:10.670Z,63.08
2019-03-05T15:40:41.280Z,62.81
2019-03-05T15:43:13.439Z,62.44
2019-03-05T15:45:44.552Z,63.29
2019-03-05T15:48:15.720Z,62.86
2019-03-05T15:50:46.923Z,63.01
2019-03-05T15:53:18.152Z,63.41
2019-03-05T15:55:49.290Z,63.38
2019-03-05T15:58:20.423Z,63.33
2019-03-05T16:00:51.593Z,63.96
2019-03-05T16:03:24.364Z,63.63
2019-03-05T16:05:57.759Z,63.98
2019-03-05T16:08:36.395Z,64.31
2019-03-05T16:11:07.592Z,64.07
2019-03-05T16:13:39.024Z,64.52
2019-03-05T16:16:10.284Z,64.42
2019-03-05T16:18:41.751Z,64.38
2019-03-05T16:21:13.072Z,65.22
2019-03-05T16:23:44.212Z,64.56
2019-03-05T16:26:15.542Z,64.82
2019-03-05T16:28:46.643Z,64.71
2019-03-05T16:31:22.127Z,65.12
2019-03-05T16:34:01.718Z,64.82
2019-03-05T16:36:41.396Z,64.48
2019-03-05T16:39:14.373Z,64.63
2019-03-05T16:41:47.711Z,64.93
2019-03-05T16:44:25.658Z,64.39
2019-03-05T16:47:14.569Z,64.29
2019-03-05T16:49:47.407Z,64.75
2019-03-05T16:52:25.941Z,63.91
2019-03-05T16:54:58.698Z,64.54
2019-03-05T16:57:47.479Z,64.49
2019-03-05T17:00:26.328Z,64.88
2019-03-05T17:03:07.584Z,65.26
2019-03-05T17:05:46.185Z,65.38
2019-03-05T17:08:24.661Z,65.00
2019-03-05T17:11:06.633Z,64.47
2019-03-05T17:13:37.897Z,64.34
2019-03-05T17:16:08.897Z,64.43
2019-03-05T17:18:40.628Z,64.49
2019-03-05T17:21:11.957Z,64.53
2019-03-05T17:23:44.274Z,64.91
2019-03-05T17:26:15.657Z,63.89
2019-03-05T17:28:49.695Z,63.97
2019-03-05T17:31:20.972Z,64.14
2019-03-05T17:33:52.152Z,64.25
2019-03-05T17:36:23.328Z,64.32
2019-03-05T17:38:56.032Z,63.98
2019-03-05T17:41:27.379Z,63.85
2019-03-05T17:43:58.875Z,63.77
2019-03-05T17:46:30.113Z,63.54
2019-03-05T17:49:04.961Z,63.65
2019-03-05T17:51:40.767Z,63.41
2019-03-05T17:54:16.074Z,63.96
2019-03-05T17:56:48.347Z,64.10
2019-03-05T17:59:19.416Z,63.94
2019-03-05T18:01:51.164Z,64.06
2019-03-05T18:04:25.380Z,63.62
2019-03-05T18:06:56.509Z,64.59
2019-03-05T18:09:28.506Z,63.55
2019-03-05T18:12:01.420Z,63.60
2019-03-05T18:14:33.822Z,63.15
2019-03-05T18:17:05.016Z,63.50
2019-03-05T18:19:36.586Z,63.16
2019-03-05T18:22:07.714Z,63.56
2019-03-05T18:24:38.988Z,63.84
2019-03-05T18:27:10.284Z,62.87
2019-03-05T18:29:41.812Z,62.69
2019-03-05T18:32:13.095Z,63.00
2019-03-05T18:34:44.427Z,62.61
2019-03-05T18:37:15.846Z,63.34
2019-03-05T18:39:47.115Z,62.13
2019-03-05T18:42:17.861Z,62.19
2019-03-05T18:44:51.482Z,62.56
2019-03-05T18:47:22.681Z,62.35
2019-03-05T18:49:54.257Z,62.50
2019-03-05T18:52:25.504Z,62.53
2019-03-05T18:54:56.005Z,62.48
2019-03-05T18:57:27.374Z,62.24
2019-03-05T18:59:58.522Z,62.30
2019-03-05T19:02:29.719Z,62.26
2019-03-05T19:05:00.930Z,62.33
2019-03-05T19:07:32.139Z,62.15
2019-03-05T19:10:03.563Z,62.24
2019-03-05T19:12:35.220Z,62.81
2019-03-05T19:15:07.340Z,62.40
2019-03-05T19:17:38.530Z,62.40
2019-03-05T19:20:10.672Z,62.24
2019-03-05T19:22:41.771Z,62.21
2019-03-05T19:25:16.132Z,62.13
2019-03-05T19:27:48.281Z,62.27
2019-03-05T19:30:29.011Z,62.19
2019-03-05T19:33:00.052Z,62.24
2019-03-05T19:35:32.354Z,62.33
2019-03-05T19:38:05.124Z,62.28
2019-03-05T19:40:38.945Z,62.05
2019-03-05T19:43:10.222Z,62.30
2019-03-05T19:45:41.336Z,62.29
2019-03-05T19:48:14.572Z,62.11
2019-03-05T19:50:47.235Z,61.72
2019-03-05T19:53:18.313Z,61.60
2019-03-05T19:55:48.920Z,61.71
2019-03-05T19:58:20.171Z,61.67
2019-03-05T20:00:59.544Z,61.76
2019-03-05T20:03:30.712Z,61.27
2019-03-05T20:06:01.983Z,61.21
2019-03-05T20:08:39.911Z,61.47
2019-03-05T20:11:06.317Z,61.71
2019-03-05T20:13:38.576Z,61.86
2019-03-05T20:16:09.692Z,61.63
2019-03-05T20:18:40.909Z,61.25
2019-03-05T20:21:14.263Z,61.01
2019-03-05T20:23:45.445Z,61.02
2019-03-05T20:26:15.930Z,61.34
2019-03-05T20:28:46.988Z,61.24
2019-03-05T20:31:19.934Z,61.42
2019-03-05T20:33:51.987Z,61.46
2019-03-05T20:36:23.204Z,61.68
2019-03-05T20:38:54.542Z,61.85
2019-03-05T20:41:25.901Z,61.92
2019-03-05T20:43:57.742Z,62.21
2019-03-05T20:46:28.949Z,62.03
2019-03-05T20:49:01.150Z,62.72
2019-03-05T20:51:39.394Z,62.51
2019-03-05T20:54:11.493Z,62.83
2019-03-05T20:56:42.766Z,63.21
2019-03-05T20:59:13.832Z,63.37
2019-03-05T21:01:44.285Z,63.33
2019-03-05T21:04:15.395Z,63.38
2019-03-05T21:06:46.812Z,63.77
2019-03-05T21:09:23.057Z,63.78
2019-03-05T21:11:55.870Z,63.92
2019-03-05T21:14:27.064Z,64.56
2019-03-05T21:17:01.295Z,64.33
2019-03-05T21:19:32.516Z,64.63
2019-03-05T21:22:03.990Z,64.75
2019-03-05T21:24:36.346Z,64.96
2019-03-05T21:27:07.619Z,65.54
2019-03-05T21:29:38.742Z,65.50
2019-03-05T21:32:09.926Z,65.61
2019-03-05T21:34:42.622Z,66.01
2019-03-05T21:37:13.966Z,66.44
2019-03-05T21:39:45.140Z,66.24
2019-03-05T21:42:18.927Z,66.95
2019-03-05T21:45:44.399Z,66.89
2019-03-05T21:49:27.773Z,67.57
2019-03-05T21:52:23.164Z,67.82
2019-03-05T21:54:54.288Z,68.30
2019-03-05T21:57:25.536Z,68.64
2019-03-05T21:59:56.707Z,69.21
2019-03-05T22:02:27.879Z,69.30
2019-03-05T22:05:00.326Z,69.51
2019-03-05T22:07:31.531Z,69.85
2019-03-05T22:10:05.193Z,70.00
2019-03-05T22:12:36.369Z,70.30
2019-03-05T22:15:11.312Z,70.33
2019-03-05T22:17:42.383Z,70.45
2019-03-05T22:20:19.265Z,70.57
2019-03-05T22:22:50.587Z,70.67
2019-03-05T22:25:22.817Z,70.61
2019-03-05T22:27:54.011Z,70.84
2019-03-05T22:30:27.186Z,70.46
2019-03-05T22:32:58.407Z,70.49
2019-03-05T22:35:29.677Z,70.20
2019-03-05T22:38:02.436Z,70.23
2019-03-05T22:40:33.951Z,70.12
2019-03-05T22:43:04.531Z,69.94
2019-03-05T22:45:36.097Z,69.47
2019-03-05T22:48:07.287Z,69.60
2019-03-05T22:50:37.718Z,69.68
2019-03-05T22:53:08.988Z,69.36
2019-03-05T22:55:40.156Z,69.51
2019-03-05T22:58:11.248Z,69.37
2019-03-05T23:00:55.853Z,69.52
2019-03-05T23:03:30.305Z,69.47
2019-03-05T23:06:05.601Z,69.54
2019-03-05T23:08:38.167Z,69.43
2019-03-05T23:11:09.441Z,69.66
2019-03-05T23:13:40.607Z,69.50
2019-03-05T23:16:11.829Z,69.50
2019-03-05T23:18:42.970Z,69.48
2019-03-05T23:21:14.214Z,69.61
2019-03-05T23:23:45.464Z,69.71
2019-03-05T23:26:16.625Z,69.79
2019-03-05T23:28:47.703Z,69.55
2019-03-05T23:31:18.141Z,69.44
2019-03-05T23:33:50.542Z,69.31
2019-03-05T23:36:21.947Z,69.75
2019-03-05T23:38:53.041Z,68.88
2019-03-05T23:41:25.542Z,68.99
2019-03-05T23:43:56.690Z,68.93
2019-03-05T23:46:29.234Z,69.06
2019-03-05T23:49:02.260Z,68.96
2019-03-05T23:51:33.323Z,69.10
2019-03-05T23:54:03.758Z,69.41
2019-03-05T23:56:34.826Z,68.85
2019-03-05T23:59:10.908Z,69.15
